Capitol Logistics 369


PHNL
Daniel K Inouye International Airport
Honolulu, Hawaii, US
KRIV
March Air Reserve Base
Riverside, California, US

Activity Log

Date Flight Route Aircraft Duration
02/06/2019 CPX369 MKK4 FITES R578 FICKY ROSIN MALIT OCN B763 5h 07m

Route Details

Aircraft Information
Primary: Boeing 767-300BDSF
Backup: Not Available
Route Data
Distance: 2277nm
Sched. Duration: 5h 00m
Avg. Duration: 5h 07m (+7m)
Times Flown: 1
Recm'd Route: MKK4 FITES R578 FICKY ROSIN MALIT OCN
Planned Altitude: 37,000ft
Origin Wx: PHNL 271653Z 06013G20KT 10SM FEW025 SCT043 SCT070 22/16 A3015 RMK AO2 RAB04E42 SLP210 P0000 T02220161
Dest. Wx: KRIV 271656Z AUTO 04008KT 10SM CLR 22/M09 A3021 RMK AO2 SLP221 T02181089
Notes:

Financial History
Total Freight: 116,000lbs
Average Load: 116,000lbs/flt
Fuel Used: 60,081lbs
Avg. Fuel Used: 60,081lbs/flt
Fuel Expense: $44,460
Avg. Fuel Expense: $44,460
Avg. Fuel Cost: $0.74/lbs
Total Gross Income: $143,840
Pilot Pay: $229
Total Expenses: $15,587
Total Revenue: $82,571
Average Revenue: $143,840.00